sensor_id;sensor_type;location;lat;lon;timestamp;temperature;humidity
19809;DHT22;48538;32.784;-96.802;2023-04-25T00:00:28;20.00;99.90
19809;DHT22;48538;32.784;-96.802;2023-04-25T00:02:55;20.00;99.90
19809;DHT22;48538;32.784;-96.802;2023-04-25T00:05:26;20.00;99.90
19809;DHT22;48538;32.784;-96.802;2023-04-25T00:07:52;19.90;99.90
19809;DHT22;48538;32.784;-96.802;2023-04-25T00:10:20;19.90;99.90
19809;DHT22;48538;32.784;-96.802;2023-04-25T00:12:46;19.80;99.90
19809;DHT22;48538;32.784;-96.802;2023-04-25T00:15:13;19.80;99.90
19809;DHT22;48538;32.784;-96.802;2023-04-25T00:17:40;19.90;99.90
19809;DHT22;48538;32.784;-96.802;2023-04-25T00:20:07;19.80;99.90
19809;DHT22;48538;32.784;-96.802;2023-04-25T00:22:36;19.80;99.90
19809;DHT22;48538;32.784;-96.802;2023-04-25T00:25:06;19.80;99.90
19809;DHT22;48538;32.784;-96.802;2023-04-25T00:27:32;19.70;99.90
19809;DHT22;48538;32.784;-96.802;2023-04-25T00:29:59;19.70;99.90
19809;DHT22;48538;32.784;-96.802;2023-04-25T00:32:25;19.70;99.90
19809;DHT22;48538;32.784;-96.802;2023-04-25T00:34:52;19.70;99.90
19809;DHT22;48538;32.784;-96.802;2023-04-25T00:37:18;19.60;99.90
19809;DHT22;48538;32.784;-96.802;2023-04-25T00:39:45;19.60;99.90
19809;DHT22;48538;32.784;-96.802;2023-04-25T00:42:12;19.60;99.90
19809;DHT22;48538;32.784;-96.802;2023-04-25T00:44:38;19.60;99.90
19809;DHT22;48538;32.784;-96.802;2023-04-25T00:47:05;19.50;99.90
19809;DHT22;48538;32.784;-96.802;2023-04-25T00:49:32;19.50;99.90
19809;DHT22;48538;32.784;-96.802;2023-04-25T00:51:58;19.50;99.90
19809;DHT22;48538;32.784;-96.802;2023-04-25T00:54:25;19.40;99.90
19809;DHT22;48538;32.784;-96.802;2023-04-25T00:56:51;19.30;99.90
19809;DHT22;48538;32.784;-96.802;2023-04-25T00:59:19;19.30;99.90
19809;DHT22;48538;32.784;-96.802;2023-04-25T01:01:46;19.20;99.90
19809;DHT22;48538;32.784;-96.802;2023-04-25T01:04:13;19.20;99.90
19809;DHT22;48538;32.784;-96.802;2023-04-25T01:06:40;19.20;99.90
19809;DHT22;48538;32.784;-96.802;2023-04-25T01:09:07;19.20;99.90
19809;DHT22;48538;32.784;-96.802;2023-04-25T01:11:33;19.10;99.90
19809;DHT22;48538;32.784;-96.802;2023-04-25T01:14:00;19.10;99.90
19809;DHT22;48538;32.784;-96.802;2023-04-25T01:16:27;19.10;99.90
19809;DHT22;48538;32.784;-96.802;2023-04-25T01:18:54;19.10;99.90
19809;DHT22;48538;32.784;-96.802;2023-04-25T01:21:20;19.10;99.90
19809;DHT22;48538;32.784;-96.802;2023-04-25T01:23:47;19.00;99.90
19809;DHT22;48538;32.784;-96.802;2023-04-25T01:26:14;19.00;99.90
19809;DHT22;48538;32.784;-96.802;2023-04-25T01:28:41;18.90;99.90
19809;DHT22;48538;32.784;-96.802;2023-04-25T01:31:07;18.90;99.90
19809;DHT22;48538;32.784;-96.802;2023-04-25T01:33:33;18.90;99.90
19809;DHT22;48538;32.784;-96.802;2023-04-25T01:36:00;18.90;99.90
19809;DHT22;48538;32.784;-96.802;2023-04-25T01:38:27;18.80;99.90
19809;DHT22;48538;32.784;-96.802;2023-04-25T01:40:54;18.90;99.90
19809;DHT22;48538;32.784;-96.802;2023-04-25T01:43:21;18.90;99.90
19809;DHT22;48538;32.784;-96.802;2023-04-25T01:45:48;18.80;99.90
19809;DHT22;48538;32.784;-96.802;2023-04-25T01:48:15;18.80;99.90
19809;DHT22;48538;32.784;-96.802;2023-04-25T01:50:42;18.80;99.90
19809;DHT22;48538;32.784;-96.802;2023-04-25T01:53:09;18.70;99.90
19809;DHT22;48538;32.784;-96.802;2023-04-25T01:55:38;18.70;99.90
19809;DHT22;48538;32.784;-96.802;2023-04-25T01:58:05;18.70;99.90
19809;DHT22;48538;32.784;-96.802;2023-04-25T02:00:36;18.60;99.90
19809;DHT22;48538;32.784;-96.802;2023-04-25T02:03:06;18.60;99.90
19809;DHT22;48538;32.784;-96.802;2023-04-25T02:05:37;18.60;99.90
19809;DHT22;48538;32.784;-96.802;2023-04-25T02:08:05;18.60;99.90
19809;DHT22;48538;32.784;-96.802;2023-04-25T02:10:33;18.60;99.90
19809;DHT22;48538;32.784;-96.802;2023-04-25T02:12:59;18.70;99.90
19809;DHT22;48538;32.784;-96.802;2023-04-25T02:15:26;18.60;99.90
19809;DHT22;48538;32.784;-96.802;2023-04-25T02:17:52;18.60;99.90
19809;DHT22;48538;32.784;-96.802;2023-04-25T02:20:23;18.60;99.90
19809;DHT22;48538;32.784;-96.802;2023-04-25T02:22:50;18.60;99.90
19809;DHT22;48538;32.784;-96.802;2023-04-25T02:25:18;18.60;99.90
19809;DHT22;48538;32.784;-96.802;2023-04-25T02:27:46;18.60;99.90
19809;DHT22;48538;32.784;-96.802;2023-04-25T02:30:13;18.60;99.90
19809;DHT22;48538;32.784;-96.802;2023-04-25T02:32:40;18.50;99.90
19809;DHT22;48538;32.784;-96.802;2023-04-25T02:35:07;18.50;99.90
19809;DHT22;48538;32.784;-96.802;2023-04-25T02:37:35;18.40;99.90
19809;DHT22;48538;32.784;-96.802;2023-04-25T02:40:02;18.40;99.90
19809;DHT22;48538;32.784;-96.802;2023-04-25T02:42:30;18.40;99.90
19809;DHT22;48538;32.784;-96.802;2023-04-25T02:44:56;18.40;99.90
19809;DHT22;48538;32.784;-96.802;2023-04-25T02:47:22;18.30;99.90
19809;DHT22;48538;32.784;-96.802;2023-04-25T02:49:49;18.30;99.90
19809;DHT22;48538;32.784;-96.802;2023-04-25T02:52:15;18.20;99.90
19809;DHT22;48538;32.784;-96.802;2023-04-25T02:54:41;18.20;99.90
19809;DHT22;48538;32.784;-96.802;2023-04-25T02:57:08;18.20;99.90
19809;DHT22;48538;32.784;-96.802;2023-04-25T02:59:34;18.20;99.90
19809;DHT22;48538;32.784;-96.802;2023-04-25T03:02:01;18.10;99.90
19809;DHT22;48538;32.784;-96.802;2023-04-25T03:04:27;18.10;99.90
19809;DHT22;48538;32.784;-96.802;2023-04-25T03:06:54;18.10;99.90
19809;DHT22;48538;32.784;-96.802;2023-04-25T03:09:20;18.00;99.90
19809;DHT22;48538;32.784;-96.802;2023-04-25T03:11:47;18.00;99.90
19809;DHT22;48538;32.784;-96.802;2023-04-25T03:14:13;18.00;99.90
19809;DHT22;48538;32.784;-96.802;2023-04-25T03:16:39;17.90;99.90
19809;DHT22;48538;32.784;-96.802;2023-04-25T03:19:06;17.90;99.90
19809;DHT22;48538;32.784;-96.802;2023-04-25T03:21:34;17.90;99.90
19809;DHT22;48538;32.784;-96.802;2023-04-25T03:24:04;17.90;99.90
19809;DHT22;48538;32.784;-96.802;2023-04-25T03:26:30;17.90;99.90
19809;DHT22;48538;32.784;-96.802;2023-04-25T03:28:57;17.80;99.90
19809;DHT22;48538;32.784;-96.802;2023-04-25T03:31:23;17.80;99.90
19809;DHT22;48538;32.784;-96.802;2023-04-25T03:33:49;17.80;99.90
19809;DHT22;48538;32.784;-96.802;2023-04-25T03:36:15;17.70;99.90
19809;DHT22;48538;32.784;-96.802;2023-04-25T03:38:42;17.70;99.90
19809;DHT22;48538;32.784;-96.802;2023-04-25T03:41:08;17.70;99.90
19809;DHT22;48538;32.784;-96.802;2023-04-25T03:43:34;17.70;99.90
19809;DHT22;48538;32.784;-96.802;2023-04-25T03:46:01;17.70;99.90
19809;DHT22;48538;32.784;-96.802;2023-04-25T03:48:27;17.70;99.90
19809;DHT22;48538;32.784;-96.802;2023-04-25T03:50:54;17.70;99.90
19809;DHT22;48538;32.784;-96.802;2023-04-25T03:53:21;17.60;99.90
19809;DHT22;48538;32.784;-96.802;2023-04-25T03:55:47;17.60;99.90
19809;DHT22;48538;32.784;-96.802;2023-04-25T03:58:13;17.70;99.90
19809;DHT22;48538;32.784;-96.802;2023-04-25T04:00:40;17.60;99.90
19809;DHT22;48538;32.784;-96.802;2023-04-25T04:03:06;17.60;99.90
19809;DHT22;48538;32.784;-96.802;2023-04-25T04:05:32;17.60;99.90
19809;DHT22;48538;32.784;-96.802;2023-04-25T04:07:59;17.60;99.90
19809;DHT22;48538;32.784;-96.802;2023-04-25T04:10:25;17.60;99.90
19809;DHT22;48538;32.784;-96.802;2023-04-25T04:12:52;17.60;99.90
19809;DHT22;48538;32.784;-96.802;2023-04-25T04:15:18;17.60;99.90
19809;DHT22;48538;32.784;-96.802;2023-04-25T04:17:44;17.60;99.90
19809;DHT22;48538;32.784;-96.802;2023-04-25T04:20:12;17.60;99.90
19809;DHT22;48538;32.784;-96.802;2023-04-25T04:22:39;17.60;99.90
19809;DHT22;48538;32.784;-96.802;2023-04-25T04:25:05;17.60;99.90
19809;DHT22;48538;32.784;-96.802;2023-04-25T04:27:32;17.60;99.90
19809;DHT22;48538;32.784;-96.802;2023-04-25T04:29:58;17.60;99.90
19809;DHT22;48538;32.784;-96.802;2023-04-25T04:32:25;17.60;99.90
19809;DHT22;48538;32.784;-96.802;2023-04-25T04:34:51;17.60;99.90
19809;DHT22;48538;32.784;-96.802;2023-04-25T04:37:18;17.60;99.90
19809;DHT22;48538;32.784;-96.802;2023-04-25T04:39:44;17.60;99.90
19809;DHT22;48538;32.784;-96.802;2023-04-25T04:42:11;17.60;99.90
19809;DHT22;48538;32.784;-96.802;2023-04-25T04:44:38;17.60;99.90
19809;DHT22;48538;32.784;-96.802;2023-04-25T04:47:05;17.60;99.90
19809;DHT22;48538;32.784;-96.802;2023-04-25T04:49:32;17.50;99.90
19809;DHT22;48538;32.784;-96.802;2023-04-25T04:51:59;17.50;99.90
19809;DHT22;48538;32.784;-96.802;2023-04-25T04:54:26;17.40;99.90
19809;DHT22;48538;32.784;-96.802;2023-04-25T04:56:52;17.40;99.90
19809;DHT22;48538;32.784;-96.802;2023-04-25T04:59:19;17.40;99.90
19809;DHT22;48538;32.784;-96.802;2023-04-25T05:01:45;17.40;99.90
19809;DHT22;48538;32.784;-96.802;2023-04-25T05:04:12;17.40;99.90
19809;DHT22;48538;32.784;-96.802;2023-04-25T05:06:38;17.40;99.90
19809;DHT22;48538;32.784;-96.802;2023-04-25T05:09:05;17.40;99.90
19809;DHT22;48538;32.784;-96.802;2023-04-25T05:11:31;17.40;99.90
19809;DHT22;48538;32.784;-96.802;2023-04-25T05:13:57;17.40;99.90
19809;DHT22;48538;32.784;-96.802;2023-04-25T05:16:24;17.30;99.90
19809;DHT22;48538;32.784;-96.802;2023-04-25T05:18:51;17.30;99.90
19809;DHT22;48538;32.784;-96.802;2023-04-25T05:21:17;17.30;99.90
19809;DHT22;48538;32.784;-96.802;2023-04-25T05:23:43;17.40;99.90
19809;DHT22;48538;32.784;-96.802;2023-04-25T05:26:10;17.40;99.90
19809;DHT22;48538;32.784;-96.802;2023-04-25T05:28:40;17.50;99.90
19809;DHT22;48538;32.784;-96.802;2023-04-25T05:31:09;17.50;99.90
19809;DHT22;48538;32.784;-96.802;2023-04-25T05:33:35;17.50;99.90
19809;DHT22;48538;32.784;-96.802;2023-04-25T05:36:01;17.50;99.90
19809;DHT22;48538;32.784;-96.802;2023-04-25T05:38:28;17.50;99.90
19809;DHT22;48538;32.784;-96.802;2023-04-25T05:40:55;17.60;99.90
19809;DHT22;48538;32.784;-96.802;2023-04-25T05:43:21;17.60;99.90
19809;DHT22;48538;32.784;-96.802;2023-04-25T05:45:48;17.50;99.90
19809;DHT22;48538;32.784;-96.802;2023-04-25T05:48:14;17.60;99.90
19809;DHT22;48538;32.784;-96.802;2023-04-25T05:50:40;17.50;99.90
19809;DHT22;48538;32.784;-96.802;2023-04-25T05:53:07;17.60;99.90
19809;DHT22;48538;32.784;-96.802;2023-04-25T05:55:33;17.60;99.90
19809;DHT22;48538;32.784;-96.802;2023-04-25T05:57:59;17.60;99.90
19809;DHT22;48538;32.784;-96.802;2023-04-25T06:00:26;17.70;99.90
19809;DHT22;48538;32.784;-96.802;2023-04-25T06:02:52;17.70;99.90
19809;DHT22;48538;32.784;-96.802;2023-04-25T06:05:19;17.70;99.90
19809;DHT22;48538;32.784;-96.802;2023-04-25T06:07:45;17.60;99.90
19809;DHT22;48538;32.784;-96.802;2023-04-25T06:10:12;17.70;99.90
19809;DHT22;48538;32.784;-96.802;2023-04-25T06:12:38;17.60;99.90
19809;DHT22;48538;32.784;-96.802;2023-04-25T06:15:05;17.70;99.90
19809;DHT22;48538;32.784;-96.802;2023-04-25T06:17:32;17.70;99.90
19809;DHT22;48538;32.784;-96.802;2023-04-25T06:19:58;17.60;99.90
19809;DHT22;48538;32.784;-96.802;2023-04-25T06:22:25;17.60;99.90
19809;DHT22;48538;32.784;-96.802;2023-04-25T06:24:51;17.70;99.90
19809;DHT22;48538;32.784;-96.802;2023-04-25T06:27:18;17.70;99.90
19809;DHT22;48538;32.784;-96.802;2023-04-25T06:29:44;17.70;99.90
19809;DHT22;48538;32.784;-96.802;2023-04-25T06:32:10;17.70;99.90
19809;DHT22;48538;32.784;-96.802;2023-04-25T06:34:36;17.70;99.90
19809;DHT22;48538;32.784;-96.802;2023-04-25T06:37:03;17.70;99.90
19809;DHT22;48538;32.784;-96.802;2023-04-25T06:39:29;17.80;99.90
19809;DHT22;48538;32.784;-96.802;2023-04-25T06:41:55;17.70;99.90
19809;DHT22;48538;32.784;-96.802;2023-04-25T06:44:22;17.80;99.90
19809;DHT22;48538;32.784;-96.802;2023-04-25T06:46:49;17.80;99.90
19809;DHT22;48538;32.784;-96.802;2023-04-25T06:49:19;17.80;99.90
19809;DHT22;48538;32.784;-96.802;2023-04-25T06:51:45;17.80;99.90
19809;DHT22;48538;32.784;-96.802;2023-04-25T06:54:11;17.80;99.90
19809;DHT22;48538;32.784;-96.802;2023-04-25T06:56:38;17.70;99.90
19809;DHT22;48538;32.784;-96.802;2023-04-25T06:59:04;17.80;99.90
19809;DHT22;48538;32.784;-96.802;2023-04-25T07:01:30;17.80;99.90
19809;DHT22;48538;32.784;-96.802;2023-04-25T07:03:56;17.70;99.90
19809;DHT22;48538;32.784;-96.802;2023-04-25T07:06:23;17.80;99.90
19809;DHT22;48538;32.784;-96.802;2023-04-25T07:08:51;17.70;99.90
19809;DHT22;48538;32.784;-96.802;2023-04-25T07:11:17;17.70;99.90
19809;DHT22;48538;32.784;-96.802;2023-04-25T07:13:44;17.70;99.90
19809;DHT22;48538;32.784;-96.802;2023-04-25T07:16:10;17.70;99.90
19809;DHT22;48538;32.784;-96.802;2023-04-25T07:18:36;17.70;99.90
19809;DHT22;48538;32.784;-96.802;2023-04-25T07:21:03;17.70;99.90
19809;DHT22;48538;32.784;-96.802;2023-04-25T07:23:29;17.70;99.90
19809;DHT22;48538;32.784;-96.802;2023-04-25T07:25:56;17.60;99.90
19809;DHT22;48538;32.784;-96.802;2023-04-25T07:28:22;17.60;99.90
19809;DHT22;48538;32.784;-96.802;2023-04-25T07:30:48;17.60;99.90
19809;DHT22;48538;32.784;-96.802;2023-04-25T07:33:14;17.60;99.90
19809;DHT22;48538;32.784;-96.802;2023-04-25T07:35:41;17.50;99.90
19809;DHT22;48538;32.784;-96.802;2023-04-25T07:38:07;17.60;99.90
19809;DHT22;48538;32.784;-96.802;2023-04-25T07:40:33;17.60;99.90
19809;DHT22;48538;32.784;-96.802;2023-04-25T07:43:01;17.50;99.90
19809;DHT22;48538;32.784;-96.802;2023-04-25T07:45:28;17.50;99.90
19809;DHT22;48538;32.784;-96.802;2023-04-25T07:47:54;17.60;99.90
19809;DHT22;48538;32.784;-96.802;2023-04-25T07:50:20;17.60;99.90
19809;DHT22;48538;32.784;-96.802;2023-04-25T07:52:47;17.50;99.90
19809;DHT22;48538;32.784;-96.802;2023-04-25T07:55:13;17.50;99.90
19809;DHT22;48538;32.784;-96.802;2023-04-25T07:57:39;17.50;99.90
19809;DHT22;48538;32.784;-96.802;2023-04-25T08:00:06;17.60;99.90
19809;DHT22;48538;32.784;-96.802;2023-04-25T08:02:36;17.60;99.90
19809;DHT22;48538;32.784;-96.802;2023-04-25T08:05:03;17.50;99.90
19809;DHT22;48538;32.784;-96.802;2023-04-25T08:07:29;17.50;99.90
19809;DHT22;48538;32.784;-96.802;2023-04-25T08:09:56;17.50;99.90
19809;DHT22;48538;32.784;-96.802;2023-04-25T08:12:22;17.50;99.90
19809;DHT22;48538;32.784;-96.802;2023-04-25T08:14:48;17.50;99.90
19809;DHT22;48538;32.784;-96.802;2023-04-25T08:17:15;17.50;99.90
19809;DHT22;48538;32.784;-96.802;2023-04-25T08:19:41;17.50;99.90
19809;DHT22;48538;32.784;-96.802;2023-04-25T08:22:07;17.50;99.90
19809;DHT22;48538;32.784;-96.802;2023-04-25T08:24:34;17.50;99.90
19809;DHT22;48538;32.784;-96.802;2023-04-25T08:27:00;17.50;99.90
19809;DHT22;48538;32.784;-96.802;2023-04-25T08:29:26;17.40;99.90
19809;DHT22;48538;32.784;-96.802;2023-04-25T08:31:54;17.40;99.90
19809;DHT22;48538;32.784;-96.802;2023-04-25T08:34:20;17.50;99.90
19809;DHT22;48538;32.784;-96.802;2023-04-25T08:36:46;17.40;99.90
19809;DHT22;48538;32.784;-96.802;2023-04-25T08:39:13;17.40;99.90
19809;DHT22;48538;32.784;-96.802;2023-04-25T08:41:40;17.40;99.90
19809;DHT22;48538;32.784;-96.802;2023-04-25T08:44:10;17.40;99.90
19809;DHT22;48538;32.784;-96.802;2023-04-25T08:46:38;17.40;99.90
19809;DHT22;48538;32.784;-96.802;2023-04-25T08:49:08;17.30;99.90
19809;DHT22;48538;32.784;-96.802;2023-04-25T08:51:38;17.30;99.90
19809;DHT22;48538;32.784;-96.802;2023-04-25T08:54:11;17.30;99.90
19809;DHT22;48538;32.784;-96.802;2023-04-25T08:56:45;17.30;99.90
19809;DHT22;48538;32.784;-96.802;2023-04-25T08:59:13;17.30;99.90
19809;DHT22;48538;32.784;-96.802;2023-04-25T09:01:40;17.40;99.90
19809;DHT22;48538;32.784;-96.802;2023-04-25T09:04:06;17.30;99.90
19809;DHT22;48538;32.784;-96.802;2023-04-25T09:06:33;17.20;99.90
19809;DHT22;48538;32.784;-96.802;2023-04-25T09:09:05;17.20;99.90
19809;DHT22;48538;32.784;-96.802;2023-04-25T09:11:33;17.20;99.90
19809;DHT22;48538;32.784;-96.802;2023-04-25T09:14:22;17.10;99.90
19809;DHT22;48538;32.784;-96.802;2023-04-25T09:19:29;17.10;99.90
19809;DHT22;48538;32.784;-96.802;2023-04-25T09:21:57;17.10;99.90
19809;DHT22;48538;32.784;-96.802;2023-04-25T09:24:38;17.00;99.90
19809;DHT22;48538;32.784;-96.802;2023-04-25T09:27:06;17.00;99.90
19809;DHT22;48538;32.784;-96.802;2023-04-25T09:29:34;16.90;99.90
19809;DHT22;48538;32.784;-96.802;2023-04-25T09:34:43;17.00;99.90
19809;DHT22;48538;32.784;-96.802;2023-04-25T09:37:10;17.00;99.90
19809;DHT22;48538;32.784;-96.802;2023-04-25T09:39:38;16.90;99.90
19809;DHT22;48538;32.784;-96.802;2023-04-25T09:42:05;16.90;99.90
19809;DHT22;48538;32.784;-96.802;2023-04-25T09:44:31;16.90;99.90
19809;DHT22;48538;32.784;-96.802;2023-04-25T09:46:58;16.90;99.90
19809;DHT22;48538;32.784;-96.802;2023-04-25T09:49:25;16.80;99.90
19809;DHT22;48538;32.784;-96.802;2023-04-25T09:51:56;16.80;99.90
19809;DHT22;48538;32.784;-96.802;2023-04-25T09:54:26;16.80;99.90
19809;DHT22;48538;32.784;-96.802;2023-04-25T09:56:54;16.70;99.90
19809;DHT22;48538;32.784;-96.802;2023-04-25T09:59:21;16.70;99.90
19809;DHT22;48538;32.784;-96.802;2023-04-25T10:01:49;16.70;99.90
19809;DHT22;48538;32.784;-96.802;2023-04-25T10:04:23;16.70;99.90
19809;DHT22;48538;32.784;-96.802;2023-04-25T10:06:53;16.60;99.90
19809;DHT22;48538;32.784;-96.802;2023-04-25T10:09:21;16.60;99.90
19809;DHT22;48538;32.784;-96.802;2023-04-25T10:11:50;16.50;99.90
19809;DHT22;48538;32.784;-96.802;2023-04-25T10:14:18;16.50;99.90
19809;DHT22;48538;32.784;-96.802;2023-04-25T10:16:45;16.60;99.90
19809;DHT22;48538;32.784;-96.802;2023-04-25T10:19:12;16.60;99.90
19809;DHT22;48538;32.784;-96.802;2023-04-25T10:24:38;16.60;99.90
19809;DHT22;48538;32.784;-96.802;2023-04-25T10:27:06;16.60;99.90
19809;DHT22;48538;32.784;-96.802;2023-04-25T10:29:38;16.60;99.90
19809;DHT22;48538;32.784;-96.802;2023-04-25T10:32:04;16.60;99.90
19809;DHT22;48538;32.784;-96.802;2023-04-25T10:34:42;16.60;99.90
19809;DHT22;48538;32.784;-96.802;2023-04-25T10:37:10;16.50;99.90
19809;DHT22;48538;32.784;-96.802;2023-04-25T10:39:39;16.50;99.90
19809;DHT22;48538;32.784;-96.802;2023-04-25T10:42:06;16.50;99.90
19809;DHT22;48538;32.784;-96.802;2023-04-25T10:44:34;16.40;99.90
19809;DHT22;48538;32.784;-96.802;2023-04-25T10:47:02;16.50;99.90
19809;DHT22;48538;32.784;-96.802;2023-04-25T10:49:41;16.50;99.90
19809;DHT22;48538;32.784;-96.802;2023-04-25T10:52:26;16.50;99.90
19809;DHT22;48538;32.784;-96.802;2023-04-25T10:54:57;16.50;99.90
19809;DHT22;48538;32.784;-96.802;2023-04-25T10:57:28;16.40;99.90
19809;DHT22;48538;32.784;-96.802;2023-04-25T11:00:20;16.40;99.90
19809;DHT22;48538;32.784;-96.802;2023-04-25T11:02:57;16.40;99.90
19809;DHT22;48538;32.784;-96.802;2023-04-25T11:05:32;16.40;99.90
19809;DHT22;48538;32.784;-96.802;2023-04-25T11:07:59;16.50;99.90
19809;DHT22;48538;32.784;-96.802;2023-04-25T11:10:28;16.50;99.90
19809;DHT22;48538;32.784;-96.802;2023-04-25T11:12:55;16.50;99.90
19809;DHT22;48538;32.784;-96.802;2023-04-25T11:15:21;16.50;99.90
19809;DHT22;48538;32.784;-96.802;2023-04-25T11:17:48;16.50;99.90
19809;DHT22;48538;32.784;-96.802;2023-04-25T11:20:15;16.50;99.90
19809;DHT22;48538;32.784;-96.802;2023-04-25T11:22:41;16.50;99.90
19809;DHT22;48538;32.784;-96.802;2023-04-25T11:25:11;16.50;99.90
19809;DHT22;48538;32.784;-96.802;2023-04-25T11:27:54;16.50;99.90
19809;DHT22;48538;32.784;-96.802;2023-04-25T11:30:22;16.50;99.90
19809;DHT22;48538;32.784;-96.802;2023-04-25T11:32:49;16.50;99.90
19809;DHT22;48538;32.784;-96.802;2023-04-25T11:35:16;16.40;99.90
19809;DHT22;48538;32.784;-96.802;2023-04-25T11:37:43;16.40;99.90
19809;DHT22;48538;32.784;-96.802;2023-04-25T11:40:10;16.40;99.90
19809;DHT22;48538;32.784;-96.802;2023-04-25T11:42:44;16.40;99.90
19809;DHT22;48538;32.784;-96.802;2023-04-25T11:45:11;16.40;99.90
19809;DHT22;48538;32.784;-96.802;2023-04-25T11:47:38;16.40;99.90
19809;DHT22;48538;32.784;-96.802;2023-04-25T11:50:06;16.40;99.90
19809;DHT22;48538;32.784;-96.802;2023-04-25T11:52:40;16.40;99.90
19809;DHT22;48538;32.784;-96.802;2023-04-25T11:55:18;16.30;99.90
19809;DHT22;48538;32.784;-96.802;2023-04-25T11:57:46;16.30;99.90
19809;DHT22;48538;32.784;-96.802;2023-04-25T12:00:19;16.30;99.90
19809;DHT22;48538;32.784;-96.802;2023-04-25T12:02:50;16.40;99.90
19809;DHT22;48538;32.784;-96.802;2023-04-25T12:05:17;16.30;99.90
19809;DHT22;48538;32.784;-96.802;2023-04-25T12:07:43;16.40;99.90
19809;DHT22;48538;32.784;-96.802;2023-04-25T12:10:12;16.40;99.90
19809;DHT22;48538;32.784;-96.802;2023-04-25T12:12:41;16.40;99.90
19809;DHT22;48538;32.784;-96.802;2023-04-25T12:17:42;16.30;99.90
19809;DHT22;48538;32.784;-96.802;2023-04-25T12:20:15;16.30;99.90
19809;DHT22;48538;32.784;-96.802;2023-04-25T12:22:46;16.30;99.90
19809;DHT22;48538;32.784;-96.802;2023-04-25T12:25:33;16.30;99.90
19809;DHT22;48538;32.784;-96.802;2023-04-25T12:33:21;16.30;99.90
19809;DHT22;48538;32.784;-96.802;2023-04-25T12:35:48;16.30;99.90
19809;DHT22;48538;32.784;-96.802;2023-04-25T12:38:27;16.30;99.90
19809;DHT22;48538;32.784;-96.802;2023-04-25T12:40:58;16.40;99.90
19809;DHT22;48538;32.784;-96.802;2023-04-25T12:43:24;16.30;99.90
19809;DHT22;48538;32.784;-96.802;2023-04-25T12:45:52;16.30;99.90
19809;DHT22;48538;32.784;-96.802;2023-04-25T12:48:19;16.30;99.90
19809;DHT22;48538;32.784;-96.802;2023-04-25T12:50:46;16.30;99.90
19809;DHT22;48538;32.784;-96.802;2023-04-25T12:53:20;16.30;99.90
19809;DHT22;48538;32.784;-96.802;2023-04-25T12:55:47;16.30;99.90
19809;DHT22;48538;32.784;-96.802;2023-04-25T12:58:15;16.30;99.90
19809;DHT22;48538;32.784;-96.802;2023-04-25T13:00:41;16.30;99.90
19809;DHT22;48538;32.784;-96.802;2023-04-25T13:03:09;16.30;99.90
19809;DHT22;48538;32.784;-96.802;2023-04-25T13:05:37;16.30;99.90
19809;DHT22;48538;32.784;-96.802;2023-04-25T13:08:03;16.30;99.90
19809;DHT22;48538;32.784;-96.802;2023-04-25T13:10:30;16.40;99.90
19809;DHT22;48538;32.784;-96.802;2023-04-25T13:12:56;16.40;99.90
19809;DHT22;48538;32.784;-96.802;2023-04-25T13:15:23;16.40;99.90
19809;DHT22;48538;32.784;-96.802;2023-04-25T13:17:49;16.50;99.90
19809;DHT22;48538;32.784;-96.802;2023-04-25T13:20:15;16.40;99.90
19809;DHT22;48538;32.784;-96.802;2023-04-25T13:22:43;16.40;99.90
19809;DHT22;48538;32.784;-96.802;2023-04-25T13:25:11;16.40;99.90
19809;DHT22;48538;32.784;-96.802;2023-04-25T13:27:37;16.40;99.90
19809;DHT22;48538;32.784;-96.802;2023-04-25T13:30:06;16.30;99.90
19809;DHT22;48538;32.784;-96.802;2023-04-25T13:32:37;16.30;99.90
19809;DHT22;48538;32.784;-96.802;2023-04-25T13:35:05;16.30;99.90
19809;DHT22;48538;32.784;-96.802;2023-04-25T13:37:31;16.30;99.90
19809;DHT22;48538;32.784;-96.802;2023-04-25T13:40:03;16.20;99.90
19809;DHT22;48538;32.784;-96.802;2023-04-25T13:42:31;16.30;99.90
19809;DHT22;48538;32.784;-96.802;2023-04-25T13:44:58;16.40;99.90
19809;DHT22;48538;32.784;-96.802;2023-04-25T13:47:25;16.40;99.90
19809;DHT22;48538;32.784;-96.802;2023-04-25T13:49:51;16.50;99.90
19809;DHT22;48538;32.784;-96.802;2023-04-25T13:52:18;16.50;99.90
19809;DHT22;48538;32.784;-96.802;2023-04-25T13:54:44;16.50;99.90
19809;DHT22;48538;32.784;-96.802;2023-04-25T13:57:10;16.50;99.90
19809;DHT22;48538;32.784;-96.802;2023-04-25T13:59:37;16.50;99.90
19809;DHT22;48538;32.784;-96.802;2023-04-25T14:02:03;16.40;99.90
19809;DHT22;48538;32.784;-96.802;2023-04-25T14:04:30;16.50;99.90
19809;DHT22;48538;32.784;-96.802;2023-04-25T14:06:56;16.50;99.90
19809;DHT22;48538;32.784;-96.802;2023-04-25T14:09:23;16.60;99.90
19809;DHT22;48538;32.784;-96.802;2023-04-25T14:11:54;16.60;99.90
19809;DHT22;48538;32.784;-96.802;2023-04-25T14:14:21;16.60;99.90
19809;DHT22;48538;32.784;-96.802;2023-04-25T14:16:48;16.70;99.90
19809;DHT22;48538;32.784;-96.802;2023-04-25T14:19:19;16.70;99.90
19809;DHT22;48538;32.784;-96.802;2023-04-25T14:21:46;16.70;99.90
19809;DHT22;48538;32.784;-96.802;2023-04-25T14:24:13;16.70;99.90
19809;DHT22;48538;32.784;-96.802;2023-04-25T14:26:39;16.80;99.90
19809;DHT22;48538;32.784;-96.802;2023-04-25T14:29:07;16.90;99.90
19809;DHT22;48538;32.784;-96.802;2023-04-25T14:31:34;16.90;99.90
19809;DHT22;48538;32.784;-96.802;2023-04-25T14:34:02;16.90;99.90
19809;DHT22;48538;32.784;-96.802;2023-04-25T14:36:28;17.00;99.90
19809;DHT22;48538;32.784;-96.802;2023-04-25T14:38:55;16.90;99.90
19809;DHT22;48538;32.784;-96.802;2023-04-25T14:41:21;16.90;99.90
19809;DHT22;48538;32.784;-96.802;2023-04-25T14:43:48;17.00;99.90
19809;DHT22;48538;32.784;-96.802;2023-04-25T14:46:15;17.10;99.90
19809;DHT22;48538;32.784;-96.802;2023-04-25T14:48:41;17.10;99.90
19809;DHT22;48538;32.784;-96.802;2023-04-25T14:51:07;17.20;99.90
19809;DHT22;48538;32.784;-96.802;2023-04-25T14:53:34;17.20;99.90
19809;DHT22;48538;32.784;-96.802;2023-04-25T14:56:00;17.00;99.90
19809;DHT22;48538;32.784;-96.802;2023-04-25T14:58:26;17.00;99.90
19809;DHT22;48538;32.784;-96.802;2023-04-25T15:00:53;17.10;99.90
19809;DHT22;48538;32.784;-96.802;2023-04-25T15:03:19;17.20;99.90
19809;DHT22;48538;32.784;-96.802;2023-04-25T15:05:46;17.20;99.90
19809;DHT22;48538;32.784;-96.802;2023-04-25T15:08:12;17.40;99.90
19809;DHT22;48538;32.784;-96.802;2023-04-25T15:10:38;17.40;99.90
19809;DHT22;48538;32.784;-96.802;2023-04-25T15:13:05;17.60;99.90
19809;DHT22;48538;32.784;-96.802;2023-04-25T15:15:31;17.60;99.90
19809;DHT22;48538;32.784;-96.802;2023-04-25T15:17:57;17.70;99.90
19809;DHT22;48538;32.784;-96.802;2023-04-25T15:20:24;17.60;99.90